createdAt,value
2017-07-09T00:01:42.118Z,30.47
2017-07-09T00:04:09.424Z,29.00
2017-07-09T00:06:36.776Z,26.00
2017-07-09T00:09:04.105Z,28.70
2017-07-09T00:11:31.456Z,26.13
2017-07-09T00:13:58.798Z,27.80
2017-07-09T00:16:26.166Z,26.40
2017-07-09T00:18:53.587Z,30.87
2017-07-09T00:21:20.935Z,27.43
2017-07-09T00:23:48.302Z,26.67
2017-07-09T00:26:15.605Z,24.23
2017-07-09T00:28:42.984Z,29.60
2017-07-09T00:31:10.289Z,27.07
2017-07-09T00:33:37.630Z,25.07
2017-07-09T00:36:04.966Z,28.27
2017-07-09T00:38:32.314Z,27.60
2017-07-09T00:40:59.650Z,29.27
2017-07-09T00:43:26.994Z,25.70
2017-07-09T00:45:54.317Z,26.43
2017-07-09T00:48:21.634Z,26.93
2017-07-09T00:50:48.958Z,27.23
2017-07-09T00:53:16.258Z,26.43
2017-07-09T00:55:43.606Z,27.60
2017-07-09T00:58:10.925Z,29.70
2017-07-09T01:00:38.307Z,28.20
2017-07-09T01:03:05.634Z,27.10
2017-07-09T01:05:32.989Z,26.93
2017-07-09T01:08:00.297Z,29.77
2017-07-09T01:10:27.630Z,27.33
2017-07-09T01:12:54.997Z,28.23
2017-07-09T01:15:22.338Z,25.07
2017-07-09T01:17:49.695Z,25.53
2017-07-09T01:20:17.016Z,24.83
2017-07-09T01:22:44.366Z,27.77
2017-07-09T01:25:11.885Z,23.83
2017-07-09T01:27:39.215Z,27.70
2017-07-09T01:30:06.551Z,16.87
2017-07-09T01:32:33.848Z,20.13
2017-07-09T01:35:01.173Z,16.20
2017-07-09T01:37:28.477Z,16.73
2017-07-09T01:39:55.818Z,15.20
2017-07-09T01:42:23.148Z,17.73
2017-07-09T01:44:50.468Z,16.90
2017-07-09T01:47:17.808Z,15.80
2017-07-09T01:49:45.118Z,16.90
2017-07-09T01:52:12.449Z,15.60
2017-07-09T01:54:39.782Z,15.47
2017-07-09T01:57:07.138Z,17.20
2017-07-09T01:59:35.592Z,15.63
2017-07-09T02:02:02.981Z,13.50
2017-07-09T02:04:30.311Z,17.10
2017-07-09T02:06:57.616Z,15.47
2017-07-09T02:09:24.965Z,16.90
2017-07-09T02:11:52.302Z,15.83
2017-07-09T02:14:19.639Z,12.97
2017-07-09T02:16:46.974Z,13.97
2017-07-09T02:19:14.301Z,11.60
2017-07-09T02:21:41.636Z,13.07
2017-07-09T02:24:08.929Z,13.83
2017-07-09T02:26:36.557Z,11.30
2017-07-09T02:29:03.955Z,12.13
2017-07-09T02:31:31.267Z,13.10
2017-07-09T02:33:58.591Z,14.80
2017-07-09T02:36:25.904Z,13.30
2017-07-09T02:38:53.256Z,12.07
2017-07-09T02:41:20.648Z,12.50
2017-07-09T02:43:47.960Z,9.77
2017-07-09T02:46:15.273Z,9.73
2017-07-09T02:48:42.663Z,11.07
2017-07-09T02:51:10.254Z,10.07
2017-07-09T02:53:37.572Z,9.83
2017-07-09T02:56:04.890Z,8.90
2017-07-09T02:58:32.172Z,10.10
2017-07-09T03:00:59.497Z,10.63
2017-07-09T03:03:26.771Z,9.97
2017-07-09T03:05:54.148Z,11.07
2017-07-09T03:08:21.445Z,10.70
2017-07-09T03:10:48.786Z,10.23
2017-07-09T03:13:16.466Z,9.30
2017-07-09T03:15:43.800Z,10.00
2017-07-09T03:18:11.132Z,9.53
2017-07-09T03:20:38.457Z,9.57
2017-07-09T03:23:05.833Z,10.70
2017-07-09T03:25:33.131Z,8.90
2017-07-09T03:28:00.427Z,13.57
2017-07-09T03:30:27.738Z,8.70
2017-07-09T03:32:55.051Z,11.60
2017-07-09T03:35:22.373Z,12.73
2017-07-09T03:37:49.678Z,13.57
2017-07-09T03:40:17.001Z,15.73
2017-07-09T03:42:44.324Z,9.70
2017-07-09T03:45:11.978Z,10.27
2017-07-09T03:47:39.908Z,10.83
2017-07-09T03:50:07.511Z,10.57
2017-07-09T03:52:34.817Z,11.23
2017-07-09T03:55:02.161Z,13.23
2017-07-09T03:57:29.509Z,10.57
2017-07-09T03:59:56.839Z,9.17
2017-07-09T04:02:24.198Z,10.00
2017-07-09T04:04:51.501Z,9.03
2017-07-09T04:07:18.826Z,11.00
2017-07-09T04:09:46.125Z,14.90
2017-07-09T04:12:13.477Z,8.37
2017-07-09T04:14:40.784Z,10.00
2017-07-09T04:17:08.132Z,9.43
2017-07-09T04:19:35.432Z,11.53
2017-07-09T04:22:02.744Z,10.13
2017-07-09T04:24:30.063Z,8.97
2017-07-09T04:26:57.372Z,8.37
2017-07-09T04:29:24.705Z,11.20
2017-07-09T04:31:52.001Z,7.87
2017-07-09T04:34:19.605Z,12.07
2017-07-09T04:36:46.926Z,8.17
2017-07-09T04:39:14.216Z,8.00
2017-07-09T04:41:41.544Z,10.07
2017-07-09T04:44:08.888Z,8.90
2017-07-09T04:46:36.245Z,9.87
2017-07-09T04:49:03.557Z,10.93
2017-07-09T04:51:30.872Z,13.37
2017-07-09T04:53:58.191Z,9.60
2017-07-09T04:56:25.489Z,8.23
2017-07-09T04:58:52.850Z,10.40
2017-07-09T05:01:20.178Z,9.50
2017-07-09T05:03:47.513Z,9.07
2017-07-09T05:06:14.862Z,7.90
2017-07-09T05:08:42.539Z,11.37
2017-07-09T05:11:09.871Z,9.43
2017-07-09T05:13:37.152Z,8.70
2017-07-09T05:16:04.460Z,8.57
2017-07-09T05:18:31.757Z,9.87
2017-07-09T05:20:59.101Z,7.30
2017-07-09T05:23:26.424Z,10.57
2017-07-09T05:25:53.748Z,9.23
2017-07-09T05:28:21.050Z,7.57
2017-07-09T05:30:48.357Z,10.60
2017-07-09T05:33:15.674Z,7.83
2017-07-09T05:35:42.990Z,7.30
2017-07-09T05:38:10.355Z,7.80
2017-07-09T05:40:37.605Z,9.03
2017-07-09T05:43:04.920Z,8.53
2017-07-09T05:45:32.203Z,9.80
2017-07-09T05:47:59.560Z,9.00
2017-07-09T05:50:26.886Z,8.70
2017-07-09T05:52:54.203Z,12.57
2017-07-09T05:55:21.501Z,9.00
2017-07-09T05:57:48.845Z,8.33
2017-07-09T06:00:16.150Z,9.83
2017-07-09T06:02:43.481Z,8.97
2017-07-09T06:05:10.785Z,8.60
2017-07-09T06:07:38.082Z,7.03
2017-07-09T06:10:05.414Z,8.17
2017-07-09T06:12:32.730Z,9.00
2017-07-09T06:15:00.050Z,8.87
2017-07-09T06:17:27.341Z,7.80
2017-07-09T06:19:54.678Z,9.07
2017-07-09T06:22:22.006Z,7.87
2017-07-09T06:24:49.376Z,8.57
2017-07-09T06:27:16.692Z,11.30
2017-07-09T06:29:44.055Z,12.23
2017-07-09T06:32:11.381Z,7.00
2017-07-09T06:34:38.710Z,9.43
2017-07-09T06:37:05.989Z,6.20
2017-07-09T06:39:33.311Z,8.53
2017-07-09T06:42:00.632Z,8.27
2017-07-09T06:44:27.968Z,7.43
2017-07-09T06:46:55.275Z,11.47
2017-07-09T06:49:22.570Z,8.53
2017-07-09T06:51:49.913Z,12.27
2017-07-09T06:54:17.247Z,8.80
2017-07-09T06:56:44.552Z,6.70
2017-07-09T06:59:11.877Z,7.27
2017-07-09T07:01:39.183Z,6.50
2017-07-09T07:04:06.556Z,6.80
2017-07-09T07:06:33.861Z,7.77
2017-07-09T07:09:01.402Z,7.70
2017-07-09T07:11:28.752Z,5.73
2017-07-09T07:13:56.109Z,7.20
2017-07-09T07:16:23.439Z,6.23
2017-07-09T07:18:50.739Z,6.90
2017-07-09T07:21:18.063Z,5.40
2017-07-09T07:23:45.376Z,6.50
2017-07-09T07:26:12.689Z,7.70
2017-07-09T07:28:40.012Z,7.60
2017-07-09T07:31:07.355Z,10.17
2017-07-09T07:33:34.638Z,7.47
2017-07-09T07:36:01.991Z,12.27
2017-07-09T07:38:29.300Z,9.47
2017-07-09T07:40:56.607Z,9.83
2017-07-09T07:43:23.927Z,6.00
2017-07-09T07:45:51.213Z,8.47
2017-07-09T07:48:18.559Z,10.70
2017-07-09T07:50:45.873Z,8.83
2017-07-09T07:53:13.189Z,9.40
2017-07-09T07:55:41.488Z,7.47
2017-07-09T07:58:08.867Z,8.90
2017-07-09T08:00:36.178Z,7.73
2017-07-09T08:03:03.509Z,15.30
2017-07-09T08:05:30.831Z,10.37
2017-07-09T08:07:58.126Z,9.90
2017-07-09T08:10:25.460Z,8.50
2017-07-09T08:12:53.703Z,7.00
2017-07-09T08:15:21.072Z,7.93
2017-07-09T08:17:48.400Z,7.47
2017-07-09T08:20:15.777Z,7.20
2017-07-09T08:22:43.405Z,10.07
2017-07-09T08:25:10.718Z,6.03
2017-07-09T08:27:38.050Z,6.73
2017-07-09T08:30:05.411Z,7.20
2017-07-09T08:32:32.743Z,7.37
2017-07-09T08:35:02.673Z,6.40
2017-07-09T08:37:29.990Z,8.50
2017-07-09T08:39:57.318Z,6.90
2017-07-09T08:42:24.647Z,6.90
2017-07-09T08:44:51.924Z,8.50
2017-07-09T08:47:19.256Z,7.33
2017-07-09T08:49:46.586Z,6.47
2017-07-09T08:52:13.914Z,8.53
2017-07-09T08:54:41.225Z,6.80
2017-07-09T08:57:08.542Z,8.70
2017-07-09T08:59:35.860Z,7.37
2017-07-09T09:02:03.168Z,7.13
2017-07-09T09:04:30.471Z,5.90
2017-07-09T09:06:57.815Z,9.77
2017-07-09T09:09:25.133Z,9.33
2017-07-09T09:11:52.477Z,5.90
2017-07-09T09:14:19.786Z,7.90
2017-07-09T09:16:47.082Z,7.47
2017-07-09T09:19:14.532Z,9.87
2017-07-09T09:21:42.176Z,10.20
2017-07-09T09:24:09.685Z,8.67
2017-07-09T09:26:36.961Z,9.63
2017-07-09T09:29:04.301Z,7.80
2017-07-09T09:31:31.588Z,8.40
2017-07-09T09:33:58.919Z,9.80
2017-07-09T09:36:26.268Z,7.60
2017-07-09T09:38:53.551Z,8.83
2017-07-09T09:41:20.869Z,8.23
2017-07-09T09:43:48.167Z,7.73
2017-07-09T09:46:15.508Z,9.80
2017-07-09T09:48:42.794Z,7.27
2017-07-09T09:51:10.120Z,9.60
2017-07-09T09:53:37.437Z,10.83
2017-07-09T09:56:04.744Z,9.53
2017-07-09T09:58:32.044Z,10.17
2017-07-09T10:00:59.383Z,10.20
2017-07-09T10:03:26.746Z,9.07
2017-07-09T10:05:54.036Z,7.17
2017-07-09T10:08:21.326Z,9.90
2017-07-09T10:10:48.667Z,11.50
2017-07-09T10:13:15.969Z,8.77
2017-07-09T10:15:43.272Z,7.90
2017-07-09T10:18:10.577Z,8.53
2017-07-09T10:20:38.310Z,7.83
2017-07-09T10:23:05.672Z,7.70
2017-07-09T10:25:33.002Z,9.40
2017-07-09T10:28:00.334Z,12.43
2017-07-09T10:30:27.695Z,8.80
2017-07-09T10:32:55.040Z,9.93
2017-07-09T10:35:22.361Z,9.50
2017-07-09T10:37:50.916Z,8.70
2017-07-09T10:40:18.243Z,7.37
2017-07-09T10:42:45.537Z,7.40
2017-07-09T10:45:12.861Z,11.00
2017-07-09T10:47:40.200Z,10.70
2017-07-09T10:50:07.533Z,8.60
2017-07-09T10:52:34.886Z,11.30
2017-07-09T10:55:02.539Z,7.70
2017-07-09T10:57:29.851Z,7.33
2017-07-09T10:59:57.174Z,6.50
2017-07-09T11:02:24.465Z,6.80
2017-07-09T11:04:51.839Z,6.57
2017-07-09T11:07:19.149Z,10.10
2017-07-09T11:09:46.472Z,8.10
2017-07-09T11:12:13.809Z,7.60
2017-07-09T11:14:41.134Z,9.30
2017-07-09T11:17:08.455Z,8.30
2017-07-09T11:19:35.762Z,9.40
2017-07-09T11:22:03.063Z,8.03
2017-07-09T11:24:30.390Z,6.30
2017-07-09T11:26:57.687Z,7.37
2017-07-09T11:29:25.821Z,9.50
2017-07-09T11:31:53.147Z,8.67
2017-07-09T11:34:20.782Z,12.10
2017-07-09T11:36:48.136Z,9.20
2017-07-09T11:39:15.441Z,11.63
2017-07-09T11:41:42.799Z,8.47
2017-07-09T11:44:10.103Z,8.50
2017-07-09T11:46:37.416Z,10.03
2017-07-09T11:49:04.743Z,9.70
2017-07-09T11:51:32.056Z,8.70
2017-07-09T11:53:59.349Z,10.83
2017-07-09T11:56:26.681Z,8.47
2017-07-09T11:58:54.315Z,10.33
2017-07-09T12:01:21.642Z,8.60
2017-07-09T12:03:48.944Z,8.30
2017-07-09T12:06:16.251Z,9.73
2017-07-09T12:08:43.581Z,9.30
2017-07-09T12:11:11.074Z,8.90
2017-07-09T12:13:38.372Z,9.47
2017-07-09T12:16:05.685Z,7.40
2017-07-09T12:18:33.007Z,10.20
2017-07-09T12:21:00.309Z,7.20
2017-07-09T12:23:27.711Z,10.47
2017-07-09T12:25:55.010Z,8.37
2017-07-09T12:28:22.306Z,7.30
2017-07-09T12:30:49.655Z,8.27
2017-07-09T12:33:16.984Z,12.20
2017-07-09T12:35:44.279Z,7.80
2017-07-09T12:38:11.564Z,12.90
2017-07-09T12:40:38.916Z,7.90
2017-07-09T12:43:06.534Z,8.67
2017-07-09T12:45:33.854Z,10.40
2017-07-09T12:48:01.155Z,7.90
2017-07-09T12:50:28.485Z,8.30
2017-07-09T12:52:55.817Z,7.80
2017-07-09T12:55:23.125Z,8.37
2017-07-09T12:57:50.440Z,10.37
2017-07-09T13:00:17.767Z,8.60
2017-07-09T13:02:45.091Z,7.90
2017-07-09T13:05:12.454Z,8.77
2017-07-09T13:07:39.768Z,9.00
2017-07-09T13:10:07.109Z,8.17
2017-07-09T13:12:34.751Z,11.10
2017-07-09T13:15:02.085Z,7.00
2017-07-09T13:17:29.397Z,8.50
2017-07-09T13:19:56.701Z,9.00
2017-07-09T13:22:24.025Z,9.03
2017-07-09T13:24:51.355Z,9.90
2017-07-09T13:27:18.710Z,9.57
2017-07-09T13:29:46.045Z,9.10
2017-07-09T13:32:13.393Z,8.63
2017-07-09T13:34:40.694Z,8.20
2017-07-09T13:37:08.011Z,8.90
2017-07-09T13:39:35.376Z,7.70
2017-07-09T13:42:02.686Z,7.57
2017-07-09T13:44:29.978Z,8.18
2017-07-09T13:46:57.298Z,12.10
2017-07-09T13:49:24.593Z,7.93
2017-07-09T13:51:51.902Z,7.00
2017-07-09T13:54:19.203Z,8.48
2017-07-09T13:56:46.496Z,7.40
2017-07-09T13:59:13.891Z,7.95
2017-07-09T14:01:41.194Z,7.80
2017-07-09T14:04:08.510Z,8.65
2017-07-09T14:06:35.849Z,8.02
2017-07-09T14:09:03.152Z,7.35
2017-07-09T14:11:30.461Z,7.82
2017-07-09T14:13:57.807Z,7.70
2017-07-09T14:16:25.140Z,7.82
2017-07-09T14:18:52.461Z,8.27
2017-07-09T14:21:19.784Z,8.15
2017-07-09T14:23:47.093Z,7.77
2017-07-09T14:26:14.389Z,9.30
2017-07-09T14:28:41.715Z,8.38
2017-07-09T14:31:09.016Z,8.05
2017-07-09T14:33:36.598Z,7.60
2017-07-09T14:36:03.934Z,7.53
2017-07-09T14:38:31.239Z,7.30
2017-07-09T14:40:58.551Z,7.72
2017-07-09T14:43:25.874Z,7.85
2017-07-09T14:45:53.169Z,7.37
2017-07-09T14:48:20.483Z,8.07
2017-07-09T14:50:47.795Z,7.72
2017-07-09T14:53:15.125Z,7.37
2017-07-09T14:55:42.446Z,7.60
2017-07-09T14:58:09.759Z,8.03
2017-07-09T15:00:37.057Z,8.10
2017-07-09T15:03:04.450Z,7.60
2017-07-09T15:05:31.920Z,7.67
2017-07-09T15:07:59.234Z,6.90
2017-07-09T15:10:26.534Z,6.80
2017-07-09T15:12:53.887Z,7.53
2017-07-09T15:15:21.189Z,8.07
2017-07-09T15:17:48.518Z,10.98
2017-07-09T15:20:15.832Z,6.50
2017-07-09T15:22:43.135Z,7.07
2017-07-09T15:25:10.435Z,6.68
2017-07-09T15:27:37.763Z,6.45
2017-07-09T15:30:05.048Z,6.30
2017-07-09T15:32:32.391Z,6.53
2017-07-09T15:34:59.709Z,6.03
2017-07-09T15:37:27.009Z,6.80
2017-07-09T15:39:54.361Z,7.75
2017-07-09T15:42:21.670Z,7.20
2017-07-09T15:44:49.023Z,7.28
2017-07-09T15:47:16.368Z,6.00
2017-07-09T15:49:43.678Z,7.40
2017-07-09T15:52:11.935Z,6.78
2017-07-09T15:54:39.267Z,6.80
2017-07-09T15:57:06.738Z,7.55
2017-07-09T15:59:34.101Z,7.40
2017-07-09T16:02:01.406Z,10.35
2017-07-09T16:04:28.759Z,6.95
2017-07-09T16:06:56.044Z,6.78
2017-07-09T16:09:23.362Z,7.40
2017-07-09T16:11:50.652Z,6.40
2017-07-09T16:14:17.943Z,6.62
2017-07-09T16:16:45.289Z,6.28
2017-07-09T16:19:12.604Z,6.25
2017-07-09T16:21:39.949Z,5.53
2017-07-09T16:24:07.314Z,5.72
2017-07-09T16:26:34.654Z,6.68
2017-07-09T16:29:02.158Z,6.15
2017-07-09T16:31:29.502Z,5.80
2017-07-09T16:33:56.950Z,5.85
2017-07-09T16:36:24.273Z,6.10
2017-07-09T16:38:51.599Z,5.87
2017-07-09T16:41:18.901Z,5.50
2017-07-09T16:43:46.189Z,6.62
2017-07-09T16:46:13.555Z,5.90
2017-07-09T16:48:40.898Z,6.15
2017-07-09T16:51:08.213Z,5.50
2017-07-09T16:53:35.519Z,6.07
2017-07-09T16:56:02.817Z,5.62
2017-07-09T16:58:30.153Z,5.47
2017-07-09T17:00:57.484Z,6.15
2017-07-09T17:03:24.775Z,5.80
2017-07-09T17:05:52.081Z,7.18
2017-07-09T17:08:19.730Z,6.40
2017-07-09T17:10:47.044Z,5.82
2017-07-09T17:13:14.533Z,6.55
2017-07-09T17:15:41.846Z,6.30
2017-07-09T17:18:09.191Z,6.00
2017-07-09T17:20:36.512Z,5.70
2017-07-09T17:23:03.823Z,7.32
2017-07-09T17:25:31.122Z,5.97
2017-07-09T17:27:58.458Z,5.35
2017-07-09T17:30:25.761Z,5.32
2017-07-09T17:32:53.066Z,5.85
2017-07-09T17:35:20.379Z,5.95
2017-07-09T17:37:47.684Z,6.03
2017-07-09T17:40:15.001Z,5.95
2017-07-09T17:42:42.309Z,5.30
2017-07-09T17:45:09.648Z,7.28
2017-07-09T17:47:37.019Z,5.43
2017-07-09T17:50:04.349Z,6.10
2017-07-09T17:52:31.645Z,5.68
2017-07-09T17:54:58.953Z,5.70
2017-07-09T17:57:26.249Z,5.20
2017-07-09T17:59:53.552Z,5.78
2017-07-09T18:02:20.853Z,6.05
2017-07-09T18:04:48.174Z,5.67
2017-07-09T18:07:15.485Z,5.80
2017-07-09T18:09:42.846Z,6.73
2017-07-09T18:12:11.213Z,5.37
2017-07-09T18:14:38.523Z,5.93
2017-07-09T18:17:05.891Z,5.10
2017-07-09T18:19:33.224Z,5.07
2017-07-09T18:22:01.088Z,5.50
2017-07-09T18:24:28.432Z,7.93
2017-07-09T18:26:55.741Z,5.87
2017-07-09T18:29:23.049Z,5.60
2017-07-09T18:31:50.351Z,6.60
2017-07-09T18:34:17.707Z,5.20
2017-07-09T18:36:45.020Z,4.97
2017-07-09T18:39:12.478Z,5.87
2017-07-09T18:41:39.799Z,7.00
2017-07-09T18:44:07.113Z,4.97
2017-07-09T18:46:34.410Z,8.90
2017-07-09T18:49:01.768Z,4.67
2017-07-09T18:51:29.089Z,5.27
2017-07-09T18:53:56.383Z,6.20
2017-07-09T18:56:23.688Z,6.70
2017-07-09T18:58:50.999Z,5.17
2017-07-09T19:01:18.529Z,5.90
2017-07-09T19:03:45.845Z,4.60
2017-07-09T19:06:13.187Z,5.10
2017-07-09T19:08:40.487Z,6.60
2017-07-09T19:11:07.816Z,6.23
2017-07-09T19:13:35.136Z,10.07
2017-07-09T19:16:02.453Z,6.60
2017-07-09T19:18:29.775Z,5.70
2017-07-09T19:20:57.065Z,6.70
2017-07-09T19:23:24.429Z,7.70
2017-07-09T19:25:51.769Z,8.40
2017-07-09T19:28:19.094Z,7.83
2017-07-09T19:30:46.425Z,9.53
2017-07-09T19:33:13.766Z,7.97
2017-07-09T19:35:41.135Z,8.13
2017-07-09T19:38:08.471Z,7.30
2017-07-09T19:40:36.093Z,8.60
2017-07-09T19:43:03.441Z,7.03
2017-07-09T19:45:30.797Z,8.20
2017-07-09T19:47:58.107Z,7.03
2017-07-09T19:50:25.415Z,8.37
2017-07-09T19:52:52.714Z,11.87
2017-07-09T19:55:20.062Z,9.27
2017-07-09T19:57:47.368Z,12.70
2017-07-09T20:00:14.831Z,9.03
2017-07-09T20:02:42.203Z,10.27
2017-07-09T20:05:09.552Z,10.17
2017-07-09T20:07:36.853Z,8.63
2017-07-09T20:10:04.301Z,11.10
2017-07-09T20:12:31.662Z,9.30
2017-07-09T20:14:58.970Z,9.10
2017-07-09T20:17:26.291Z,9.27
2017-07-09T20:19:53.580Z,9.60
2017-07-09T20:22:20.933Z,12.00
2017-07-09T20:24:48.225Z,8.93
2017-07-09T20:27:15.546Z,10.67
2017-07-09T20:29:42.854Z,16.23
2017-07-09T20:32:10.189Z,15.37
2017-07-09T20:34:37.517Z,11.20
2017-07-09T20:37:04.830Z,9.23
2017-07-09T20:39:32.430Z,11.77
2017-07-09T20:41:59.735Z,10.07
2017-07-09T20:44:27.142Z,11.47
2017-07-09T20:46:54.429Z,13.90
2017-07-09T20:49:21.766Z,9.70
2017-07-09T20:51:49.128Z,11.80
2017-07-09T20:54:16.439Z,11.80
2017-07-09T20:56:43.782Z,8.80
2017-07-09T20:59:11.152Z,9.37
2017-07-09T21:01:38.475Z,8.83
2017-07-09T21:04:05.787Z,9.27
2017-07-09T21:06:33.100Z,6.83
2017-07-09T21:09:00.614Z,9.10
2017-07-09T21:11:27.927Z,9.70
2017-07-09T21:13:55.244Z,7.80
2017-07-09T21:16:23.547Z,7.13
2017-07-09T21:18:50.872Z,9.87
2017-07-09T21:21:18.217Z,9.20
2017-07-09T21:23:45.561Z,8.60
2017-07-09T21:26:12.912Z,10.10
2017-07-09T21:28:40.248Z,10.90
2017-07-09T21:31:07.880Z,7.97
2017-07-09T21:33:35.286Z,9.50
2017-07-09T21:36:02.593Z,7.77
2017-07-09T21:38:29.907Z,9.40
2017-07-09T21:40:57.219Z,7.90
2017-07-09T21:43:24.530Z,11.33
2017-07-09T21:45:51.846Z,7.40
2017-07-09T21:48:19.170Z,7.40
2017-07-09T21:50:46.649Z,7.23
2017-07-09T21:53:13.970Z,7.50
2017-07-09T21:55:41.302Z,6.90
2017-07-09T21:58:08.736Z,7.23
2017-07-09T22:00:36.046Z,6.70
2017-07-09T22:03:03.380Z,5.40
2017-07-09T22:05:30.694Z,6.00
2017-07-09T22:07:58.026Z,6.60
2017-07-09T22:10:25.338Z,9.40
2017-07-09T22:12:52.747Z,10.03
2017-07-09T22:15:20.110Z,7.90
2017-07-09T22:17:47.402Z,7.17
2017-07-09T22:20:14.712Z,7.83
2017-07-09T22:22:42.067Z,9.47
2017-07-09T22:25:09.361Z,6.73
2017-07-09T22:27:36.681Z,6.30
2017-07-09T22:30:04.024Z,7.20
2017-07-09T22:32:31.323Z,6.93
2017-07-09T22:34:58.675Z,7.97
2017-07-09T22:37:26.028Z,7.93
2017-07-09T22:39:53.373Z,6.40
2017-07-09T22:42:20.684Z,9.50
2017-07-09T22:44:48.010Z,6.53
2017-07-09T22:47:15.321Z,6.43
2017-07-09T22:49:42.656Z,6.43
2017-07-09T22:52:09.948Z,6.73
2017-07-09T22:54:38.217Z,6.87
2017-07-09T22:57:05.552Z,8.40
2017-07-09T22:59:32.872Z,9.27
2017-07-09T23:02:00.187Z,7.13
2017-07-09T23:04:27.495Z,8.50
2017-07-09T23:06:54.833Z,8.43
2017-07-09T23:09:22.166Z,6.07
2017-07-09T23:11:49.531Z,7.93
2017-07-09T23:14:16.828Z,7.90
2017-07-09T23:16:44.199Z,8.03
2017-07-09T23:19:11.821Z,7.20
2017-07-09T23:21:39.126Z,7.53
2017-07-09T23:24:06.437Z,6.33
2017-07-09T23:26:33.734Z,6.50
2017-07-09T23:29:01.076Z,6.23
2017-07-09T23:31:28.379Z,6.73
2017-07-09T23:33:55.704Z,6.83
2017-07-09T23:36:23.009Z,5.57
2017-07-09T23:38:50.283Z,5.20
2017-07-09T23:41:18.524Z,7.77
2017-07-09T23:43:45.833Z,8.43
2017-07-09T23:46:13.145Z,4.93
2017-07-09T23:48:40.471Z,8.00
2017-07-09T23:51:07.783Z,7.30
2017-07-09T23:53:35.098Z,8.90
2017-07-09T23:56:02.443Z,5.30
2017-07-09T23:58:29.735Z,7.00
